sensor_id;sensor_type;location;lat;lon;timestamp;P1;durP1;ratioP1;P2;durP2;ratioP2
21645;SDS011;10984;45.712;4.800;2023-05-19T00:01:13;6.97;;;3.63;;
21645;SDS011;10984;45.712;4.800;2023-05-19T00:06:44;6.75;;;3.08;;
21645;SDS011;10984;45.712;4.800;2023-05-19T00:09:15;5.20;;;2.97;;
21645;SDS011;10984;45.712;4.800;2023-05-19T00:11:41;7.32;;;3.05;;
21645;SDS011;10984;45.712;4.800;2023-05-19T00:14:08;5.22;;;2.80;;
21645;SDS011;10984;45.712;4.800;2023-05-19T00:16:34;6.07;;;2.97;;
21645;SDS011;10984;45.712;4.800;2023-05-19T00:19:02;6.97;;;3.20;;
21645;SDS011;10984;45.712;4.800;2023-05-19T00:21:29;6.70;;;3.65;;
21645;SDS011;10984;45.712;4.800;2023-05-19T00:23:55;5.68;;;2.92;;
21645;SDS011;10984;45.712;4.800;2023-05-19T00:26:22;4.65;;;2.80;;
21645;SDS011;10984;45.712;4.800;2023-05-19T00:28:48;4.45;;;2.63;;
21645;SDS011;10984;45.712;4.800;2023-05-19T00:31:14;6.97;;;3.00;;
21645;SDS011;10984;45.712;4.800;2023-05-19T00:33:40;7.55;;;3.05;;
21645;SDS011;10984;45.712;4.800;2023-05-19T00:36:06;6.72;;;3.33;;
21645;SDS011;10984;45.712;4.800;2023-05-19T00:38:33;5.43;;;2.40;;
21645;SDS011;10984;45.712;4.800;2023-05-19T00:41:00;6.43;;;3.38;;
21645;SDS011;10984;45.712;4.800;2023-05-19T00:43:29;8.60;;;3.47;;
21645;SDS011;10984;45.712;4.800;2023-05-19T00:45:55;4.65;;;2.80;;
21645;SDS011;10984;45.712;4.800;2023-05-19T00:48:21;6.55;;;3.35;;
21645;SDS011;10984;45.712;4.800;2023-05-19T00:50:47;5.07;;;2.90;;
21645;SDS011;10984;45.712;4.800;2023-05-19T00:53:15;4.05;;;2.72;;
21645;SDS011;10984;45.712;4.800;2023-05-19T00:55:43;11.65;;;3.83;;
21645;SDS011;10984;45.712;4.800;2023-05-19T00:58:10;7.72;;;3.25;;
21645;SDS011;10984;45.712;4.800;2023-05-19T01:00:37;5.50;;;2.80;;
21645;SDS011;10984;45.712;4.800;2023-05-19T01:03:06;6.78;;;4.03;;
21645;SDS011;10984;45.712;4.800;2023-05-19T01:05:36;6.72;;;3.20;;
21645;SDS011;10984;45.712;4.800;2023-05-19T01:08:20;5.70;;;3.10;;
21645;SDS011;10984;45.712;4.800;2023-05-19T01:10:46;9.02;;;3.50;;
21645;SDS011;10984;45.712;4.800;2023-05-19T01:13:11;7.07;;;3.25;;
21645;SDS011;10984;45.712;4.800;2023-05-19T01:30:40;6.85;;;2.78;;
21645;SDS011;10984;45.712;4.800;2023-05-19T01:33:24;4.78;;;2.72;;
21645;SDS011;10984;45.712;4.800;2023-05-19T01:35:52;6.20;;;2.67;;
21645;SDS011;10984;45.712;4.800;2023-05-19T01:38:20;7.57;;;3.22;;
21645;SDS011;10984;45.712;4.800;2023-05-19T01:40:47;6.45;;;3.42;;
21645;SDS011;10984;45.712;4.800;2023-05-19T01:43:16;6.63;;;3.38;;
21645;SDS011;10984;45.712;4.800;2023-05-19T01:45:44;5.00;;;2.75;;
21645;SDS011;10984;45.712;4.800;2023-05-19T01:48:10;6.50;;;2.95;;
21645;SDS011;10984;45.712;4.800;2023-05-19T01:50:38;6.55;;;3.20;;
21645;SDS011;10984;45.712;4.800;2023-05-19T01:53:04;6.38;;;2.95;;
21645;SDS011;10984;45.712;4.800;2023-05-19T01:55:30;5.80;;;2.95;;
21645;SDS011;10984;45.712;4.800;2023-05-19T02:12:35;6.32;;;3.25;;
21645;SDS011;10984;45.712;4.800;2023-05-19T02:17:31;9.50;;;3.30;;
21645;SDS011;10984;45.712;4.800;2023-05-19T02:20:00;5.15;;;2.70;;
21645;SDS011;10984;45.712;4.800;2023-05-19T02:22:28;4.82;;;2.75;;
21645;SDS011;10984;45.712;4.800;2023-05-19T02:24:54;7.60;;;3.45;;
21645;SDS011;10984;45.712;4.800;2023-05-19T02:27:21;9.40;;;3.20;;
21645;SDS011;10984;45.712;4.800;2023-05-19T02:29:47;5.10;;;2.70;;
21645;SDS011;10984;45.712;4.800;2023-05-19T02:32:13;5.45;;;3.10;;
21645;SDS011;10984;45.712;4.800;2023-05-19T02:34:39;5.28;;;3.10;;
21645;SDS011;10984;45.712;4.800;2023-05-19T02:37:09;7.43;;;3.13;;
21645;SDS011;10984;45.712;4.800;2023-05-19T02:39:37;5.43;;;3.28;;
21645;SDS011;10984;45.712;4.800;2023-05-19T02:42:03;6.53;;;2.63;;
21645;SDS011;10984;45.712;4.800;2023-05-19T02:44:29;8.02;;;3.30;;
21645;SDS011;10984;45.712;4.800;2023-05-19T02:46:55;5.38;;;2.92;;
21645;SDS011;10984;45.712;4.800;2023-05-19T02:49:20;6.18;;;2.80;;
21645;SDS011;10984;45.712;4.800;2023-05-19T02:51:46;6.72;;;3.55;;
21645;SDS011;10984;45.712;4.800;2023-05-19T02:54:12;5.75;;;3.20;;
21645;SDS011;10984;45.712;4.800;2023-05-19T02:56:37;5.22;;;2.42;;
21645;SDS011;10984;45.712;4.800;2023-05-19T02:59:03;6.25;;;3.50;;
21645;SDS011;10984;45.712;4.800;2023-05-19T03:01:28;5.68;;;2.35;;
21645;SDS011;10984;45.712;4.800;2023-05-19T03:03:56;5.43;;;2.63;;
21645;SDS011;10984;45.712;4.800;2023-05-19T03:06:22;6.15;;;2.92;;
21645;SDS011;10984;45.712;4.800;2023-05-19T03:08:48;5.65;;;2.95;;
21645;SDS011;10984;45.712;4.800;2023-05-19T03:11:14;5.70;;;3.00;;
21645;SDS011;10984;45.712;4.800;2023-05-19T03:13:40;5.63;;;2.50;;
21645;SDS011;10984;45.712;4.800;2023-05-19T03:16:06;7.07;;;3.25;;
21645;SDS011;10984;45.712;4.800;2023-05-19T03:18:32;7.10;;;3.15;;
21645;SDS011;10984;45.712;4.800;2023-05-19T03:20:58;7.28;;;3.53;;
21645;SDS011;10984;45.712;4.800;2023-05-19T03:23:24;5.50;;;2.83;;
21645;SDS011;10984;45.712;4.800;2023-05-19T03:25:50;6.80;;;3.08;;
21645;SDS011;10984;45.712;4.800;2023-05-19T03:28:18;4.88;;;2.65;;
21645;SDS011;10984;45.712;4.800;2023-05-19T03:30:43;5.47;;;2.85;;
21645;SDS011;10984;45.712;4.800;2023-05-19T03:33:10;5.05;;;2.63;;
21645;SDS011;10984;45.712;4.800;2023-05-19T03:35:35;5.13;;;3.10;;
21645;SDS011;10984;45.712;4.800;2023-05-19T03:38:01;5.72;;;2.95;;
21645;SDS011;10984;45.712;4.800;2023-05-19T03:40:27;5.80;;;2.70;;
21645;SDS011;10984;45.712;4.800;2023-05-19T03:42:52;5.72;;;2.70;;
21645;SDS011;10984;45.712;4.800;2023-05-19T03:45:18;5.43;;;3.15;;
21645;SDS011;10984;45.712;4.800;2023-05-19T03:47:45;6.00;;;2.85;;
21645;SDS011;10984;45.712;4.800;2023-05-19T03:50:11;8.93;;;3.40;;
21645;SDS011;10984;45.712;4.800;2023-05-19T03:52:38;4.75;;;2.63;;
21645;SDS011;10984;45.712;4.800;2023-05-19T03:55:04;4.75;;;2.72;;
21645;SDS011;10984;45.712;4.800;2023-05-19T03:57:30;4.78;;;2.58;;
21645;SDS011;10984;45.712;4.800;2023-05-19T03:59:57;6.20;;;2.85;;
21645;SDS011;10984;45.712;4.800;2023-05-19T04:02:23;5.82;;;2.30;;
21645;SDS011;10984;45.712;4.800;2023-05-19T04:04:49;5.03;;;2.63;;
21645;SDS011;10984;45.712;4.800;2023-05-19T04:07:15;5.15;;;2.50;;
21645;SDS011;10984;45.712;4.800;2023-05-19T04:09:40;5.90;;;2.70;;
21645;SDS011;10984;45.712;4.800;2023-05-19T04:12:07;4.40;;;2.40;;
21645;SDS011;10984;45.712;4.800;2023-05-19T04:14:32;6.13;;;2.70;;
21645;SDS011;10984;45.712;4.800;2023-05-19T04:16:58;4.32;;;2.42;;
21645;SDS011;10984;45.712;4.800;2023-05-19T04:19:24;6.25;;;2.78;;
21645;SDS011;10984;45.712;4.800;2023-05-19T04:21:49;6.40;;;2.85;;
21645;SDS011;10984;45.712;4.800;2023-05-19T04:24:15;4.93;;;2.42;;
21645;SDS011;10984;45.712;4.800;2023-05-19T04:26:41;5.20;;;2.75;;
21645;SDS011;10984;45.712;4.800;2023-05-19T04:29:10;6.13;;;2.60;;
21645;SDS011;10984;45.712;4.800;2023-05-19T04:31:37;5.70;;;3.20;;
21645;SDS011;10984;45.712;4.800;2023-05-19T04:34:22;6.50;;;2.72;;
21645;SDS011;10984;45.712;4.800;2023-05-19T04:36:47;8.60;;;3.30;;
21645;SDS011;10984;45.712;4.800;2023-05-19T04:39:13;5.72;;;3.22;;
21645;SDS011;10984;45.712;4.800;2023-05-19T04:41:39;5.72;;;2.45;;
21645;SDS011;10984;45.712;4.800;2023-05-19T04:44:08;5.53;;;2.67;;
21645;SDS011;10984;45.712;4.800;2023-05-19T04:46:33;5.38;;;2.70;;
21645;SDS011;10984;45.712;4.800;2023-05-19T04:49:00;4.38;;;2.42;;
21645;SDS011;10984;45.712;4.800;2023-05-19T04:51:26;6.15;;;2.38;;
21645;SDS011;10984;45.712;4.800;2023-05-19T04:53:53;5.63;;;2.65;;
21645;SDS011;10984;45.712;4.800;2023-05-19T04:56:19;5.63;;;2.47;;
21645;SDS011;10984;45.712;4.800;2023-05-19T04:58:46;5.43;;;2.55;;
21645;SDS011;10984;45.712;4.800;2023-05-19T05:01:12;6.00;;;2.60;;
21645;SDS011;10984;45.712;4.800;2023-05-19T05:03:56;5.68;;;2.10;;
21645;SDS011;10984;45.712;4.800;2023-05-19T05:06:23;5.22;;;2.35;;
21645;SDS011;10984;45.712;4.800;2023-05-19T05:08:48;5.18;;;2.65;;
21645;SDS011;10984;45.712;4.800;2023-05-19T05:11:15;4.60;;;2.40;;
21645;SDS011;10984;45.712;4.800;2023-05-19T05:13:41;6.80;;;2.33;;
21645;SDS011;10984;45.712;4.800;2023-05-19T05:16:07;4.70;;;2.63;;
21645;SDS011;10984;45.712;4.800;2023-05-19T05:18:33;4.85;;;2.50;;
21645;SDS011;10984;45.712;4.800;2023-05-19T05:21:00;4.60;;;2.38;;
21645;SDS011;10984;45.712;4.800;2023-05-19T05:23:27;5.93;;;2.80;;
21645;SDS011;10984;45.712;4.800;2023-05-19T05:25:53;6.70;;;2.38;;
21645;SDS011;10984;45.712;4.800;2023-05-19T05:28:19;6.63;;;2.58;;
21645;SDS011;10984;45.712;4.800;2023-05-19T05:30:44;4.28;;;2.30;;
21645;SDS011;10984;45.712;4.800;2023-05-19T05:33:30;8.70;;;2.50;;
21645;SDS011;10984;45.712;4.800;2023-05-19T05:35:56;5.82;;;1.98;;
21645;SDS011;10984;45.712;4.800;2023-05-19T05:38:22;4.82;;;2.50;;
21645;SDS011;10984;45.712;4.800;2023-05-19T05:40:48;5.55;;;2.47;;
21645;SDS011;10984;45.712;4.800;2023-05-19T05:43:13;6.78;;;3.28;;
21645;SDS011;10984;45.712;4.800;2023-05-19T05:45:39;6.43;;;2.70;;
21645;SDS011;10984;45.712;4.800;2023-05-19T05:48:05;4.85;;;2.50;;
21645;SDS011;10984;45.712;4.800;2023-05-19T05:50:31;5.15;;;2.25;;
21645;SDS011;10984;45.712;4.800;2023-05-19T05:52:56;7.10;;;2.15;;
21645;SDS011;10984;45.712;4.800;2023-05-19T05:55:25;5.57;;;2.40;;
21645;SDS011;10984;45.712;4.800;2023-05-19T05:57:51;5.03;;;2.10;;
21645;SDS011;10984;45.712;4.800;2023-05-19T06:00:17;4.88;;;2.10;;
21645;SDS011;10984;45.712;4.800;2023-05-19T06:05:28;6.30;;;2.53;;
21645;SDS011;10984;45.712;4.800;2023-05-19T06:07:54;4.63;;;2.10;;
21645;SDS011;10984;45.712;4.800;2023-05-19T06:10:19;4.93;;;1.95;;
21645;SDS011;10984;45.712;4.800;2023-05-19T06:12:45;5.75;;;2.30;;
21645;SDS011;10984;45.712;4.800;2023-05-19T06:15:10;5.53;;;2.20;;
21645;SDS011;10984;45.712;4.800;2023-05-19T06:17:36;3.28;;;1.75;;
21645;SDS011;10984;45.712;4.800;2023-05-19T06:20:02;7.30;;;2.10;;
21645;SDS011;10984;45.712;4.800;2023-05-19T06:22:46;4.75;;;2.03;;
21645;SDS011;10984;45.712;4.800;2023-05-19T06:25:12;6.20;;;2.42;;
21645;SDS011;10984;45.712;4.800;2023-05-19T06:27:37;6.28;;;2.30;;
21645;SDS011;10984;45.712;4.800;2023-05-19T06:30:03;6.80;;;2.55;;
21645;SDS011;10984;45.712;4.800;2023-05-19T06:32:30;5.60;;;2.63;;
21645;SDS011;10984;45.712;4.800;2023-05-19T06:34:55;4.72;;;1.92;;
21645;SDS011;10984;45.712;4.800;2023-05-19T06:37:21;4.13;;;1.92;;
21645;SDS011;10984;45.712;4.800;2023-05-19T06:39:51;5.15;;;2.00;;
21645;SDS011;10984;45.712;4.800;2023-05-19T06:45:01;3.47;;;1.80;;
21645;SDS011;10984;45.712;4.800;2023-05-19T06:47:27;3.92;;;1.80;;
21645;SDS011;10984;45.712;4.800;2023-05-19T06:49:52;3.72;;;1.80;;
21645;SDS011;10984;45.712;4.800;2023-05-19T06:52:19;4.65;;;2.30;;
21645;SDS011;10984;45.712;4.800;2023-05-19T06:54:45;4.65;;;2.17;;
21645;SDS011;10984;45.712;4.800;2023-05-19T06:57:12;4.90;;;2.22;;
21645;SDS011;10984;45.712;4.800;2023-05-19T06:59:38;5.35;;;2.05;;
21645;SDS011;10984;45.712;4.800;2023-05-19T07:02:06;5.32;;;2.47;;
21645;SDS011;10984;45.712;4.800;2023-05-19T07:04:31;5.35;;;1.88;;
21645;SDS011;10984;45.712;4.800;2023-05-19T07:06:57;6.45;;;2.28;;
21645;SDS011;10984;45.712;4.800;2023-05-19T07:09:23;9.02;;;2.65;;
21645;SDS011;10984;45.712;4.800;2023-05-19T07:11:49;3.72;;;1.60;;
21645;SDS011;10984;45.712;4.800;2023-05-19T07:14:14;5.18;;;1.80;;
21645;SDS011;10984;45.712;4.800;2023-05-19T07:16:40;3.95;;;1.98;;
21645;SDS011;10984;45.712;4.800;2023-05-19T07:19:06;4.03;;;1.65;;
21645;SDS011;10984;45.712;4.800;2023-05-19T07:21:31;5.00;;;1.90;;
21645;SDS011;10984;45.712;4.800;2023-05-19T07:23:57;3.97;;;1.77;;
21645;SDS011;10984;45.712;4.800;2023-05-19T07:26:22;3.78;;;2.10;;
21645;SDS011;10984;45.712;4.800;2023-05-19T07:28:48;6.03;;;1.85;;
21645;SDS011;10984;45.712;4.800;2023-05-19T07:31:14;3.88;;;2.08;;
21645;SDS011;10984;45.712;4.800;2023-05-19T07:33:40;4.55;;;2.53;;
21645;SDS011;10984;45.712;4.800;2023-05-19T07:36:06;4.72;;;1.98;;
21645;SDS011;10984;45.712;4.800;2023-05-19T07:38:32;3.80;;;1.73;;
21645;SDS011;10984;45.712;4.800;2023-05-19T07:40:59;5.03;;;1.95;;
21645;SDS011;10984;45.712;4.800;2023-05-19T07:43:25;4.13;;;2.05;;
21645;SDS011;10984;45.712;4.800;2023-05-19T07:45:51;2.97;;;1.45;;
21645;SDS011;10984;45.712;4.800;2023-05-19T07:48:17;4.18;;;2.25;;
21645;SDS011;10984;45.712;4.800;2023-05-19T07:50:46;4.95;;;1.90;;
21645;SDS011;10984;45.712;4.800;2023-05-19T07:53:13;4.53;;;1.92;;
21645;SDS011;10984;45.712;4.800;2023-05-19T07:55:39;4.70;;;1.58;;
21645;SDS011;10984;45.712;4.800;2023-05-19T07:58:05;6.80;;;2.17;;
21645;SDS011;10984;45.712;4.800;2023-05-19T08:00:31;8.15;;;3.75;;
21645;SDS011;10984;45.712;4.800;2023-05-19T08:02:57;4.35;;;1.90;;
21645;SDS011;10984;45.712;4.800;2023-05-19T08:05:22;3.05;;;1.80;;
21645;SDS011;10984;45.712;4.800;2023-05-19T08:07:49;4.22;;;1.75;;
21645;SDS011;10984;45.712;4.800;2023-05-19T08:10:15;3.45;;;1.70;;
21645;SDS011;10984;45.712;4.800;2023-05-19T08:12:41;4.65;;;1.95;;
21645;SDS011;10984;45.712;4.800;2023-05-19T08:15:08;5.07;;;2.05;;
21645;SDS011;10984;45.712;4.800;2023-05-19T08:17:35;5.60;;;1.75;;
21645;SDS011;10984;45.712;4.800;2023-05-19T08:20:02;5.70;;;1.65;;
21645;SDS011;10984;45.712;4.800;2023-05-19T08:22:30;3.92;;;1.67;;
21645;SDS011;10984;45.712;4.800;2023-05-19T08:24:56;5.43;;;2.47;;
21645;SDS011;10984;45.712;4.800;2023-05-19T08:27:22;4.32;;;1.92;;
21645;SDS011;10984;45.712;4.800;2023-05-19T08:29:47;4.22;;;2.00;;
21645;SDS011;10984;45.712;4.800;2023-05-19T08:32:13;4.00;;;1.80;;
21645;SDS011;10984;45.712;4.800;2023-05-19T08:34:39;8.95;;;2.33;;
21645;SDS011;10984;45.712;4.800;2023-05-19T08:37:05;5.57;;;2.45;;
21645;SDS011;10984;45.712;4.800;2023-05-19T08:39:31;7.47;;;2.30;;
21645;SDS011;10984;45.712;4.800;2023-05-19T08:41:58;5.00;;;1.90;;
21645;SDS011;10984;45.712;4.800;2023-05-19T08:44:24;3.05;;;1.60;;
21645;SDS011;10984;45.712;4.800;2023-05-19T08:46:50;3.75;;;1.98;;
21645;SDS011;10984;45.712;4.800;2023-05-19T08:57:45;7.43;;;2.10;;
21645;SDS011;10984;45.712;4.800;2023-05-19T09:00:13;3.90;;;1.52;;
21645;SDS011;10984;45.712;4.800;2023-05-19T09:02:41;5.10;;;2.08;;
21645;SDS011;10984;45.712;4.800;2023-05-19T09:05:07;6.55;;;2.13;;
21645;SDS011;10984;45.712;4.800;2023-05-19T09:07:35;6.30;;;2.08;;
21645;SDS011;10984;45.712;4.800;2023-05-19T09:10:02;3.17;;;1.77;;
21645;SDS011;10984;45.712;4.800;2023-05-19T09:12:28;4.82;;;1.77;;
21645;SDS011;10984;45.712;4.800;2023-05-19T09:14:54;4.72;;;2.00;;
21645;SDS011;10984;45.712;4.800;2023-05-19T09:17:21;5.75;;;2.20;;
21645;SDS011;10984;45.712;4.800;2023-05-19T09:19:47;8.43;;;2.42;;
21645;SDS011;10984;45.712;4.800;2023-05-19T09:22:13;13.32;;;3.38;;
21645;SDS011;10984;45.712;4.800;2023-05-19T09:24:43;5.15;;;1.90;;
21645;SDS011;10984;45.712;4.800;2023-05-19T09:27:09;6.22;;;2.20;;
21645;SDS011;10984;45.712;4.800;2023-05-19T09:29:39;4.00;;;1.80;;
21645;SDS011;10984;45.712;4.800;2023-05-19T09:32:05;8.23;;;2.42;;
21645;SDS011;10984;45.712;4.800;2023-05-19T09:34:31;4.70;;;2.30;;
21645;SDS011;10984;45.712;4.800;2023-05-19T09:36:57;5.95;;;2.47;;
21645;SDS011;10984;45.712;4.800;2023-05-19T09:39:24;6.45;;;2.25;;
21645;SDS011;10984;45.712;4.800;2023-05-19T09:41:51;4.38;;;1.75;;
21645;SDS011;10984;45.712;4.800;2023-05-19T09:44:22;5.22;;;2.72;;
21645;SDS011;10984;45.712;4.800;2023-05-19T09:46:53;7.55;;;2.60;;
21645;SDS011;10984;45.712;4.800;2023-05-19T09:51:47;4.50;;;2.00;;
21645;SDS011;10984;45.712;4.800;2023-05-19T09:54:33;6.68;;;1.95;;
21645;SDS011;10984;45.712;4.800;2023-05-19T09:57:00;3.70;;;1.75;;
21645;SDS011;10984;45.712;4.800;2023-05-19T09:59:27;4.93;;;2.47;;
21645;SDS011;10984;45.712;4.800;2023-05-19T10:01:54;3.38;;;2.05;;
21645;SDS011;10984;45.712;4.800;2023-05-19T10:04:25;3.15;;;1.60;;
21645;SDS011;10984;45.712;4.800;2023-05-19T10:06:53;3.88;;;1.60;;
21645;SDS011;10984;45.712;4.800;2023-05-19T10:09:23;5.40;;;2.08;;
21645;SDS011;10984;45.712;4.800;2023-05-19T10:11:50;3.65;;;1.90;;
21645;SDS011;10984;45.712;4.800;2023-05-19T10:14:18;5.07;;;1.55;;
21645;SDS011;10984;45.712;4.800;2023-05-19T10:16:49;5.10;;;1.90;;
21645;SDS011;10984;45.712;4.800;2023-05-19T10:19:18;5.68;;;1.73;;
21645;SDS011;10984;45.712;4.800;2023-05-19T10:21:46;4.10;;;1.38;;
21645;SDS011;10984;45.712;4.800;2023-05-19T10:24:12;5.32;;;2.35;;
21645;SDS011;10984;45.712;4.800;2023-05-19T10:26:38;5.78;;;2.13;;
21645;SDS011;10984;45.712;4.800;2023-05-19T10:29:08;4.88;;;1.63;;
21645;SDS011;10984;45.712;4.800;2023-05-19T10:31:34;4.28;;;1.83;;
21645;SDS011;10984;45.712;4.800;2023-05-19T10:40:29;4.43;;;1.98;;
21645;SDS011;10984;45.712;4.800;2023-05-19T10:46:00;3.97;;;1.65;;
21645;SDS011;10984;45.712;4.800;2023-05-19T10:48:25;4.53;;;1.90;;
21645;SDS011;10984;45.712;4.800;2023-05-19T10:50:56;3.88;;;1.90;;
21645;SDS011;10984;45.712;4.800;2023-05-19T10:53:26;3.40;;;1.73;;
21645;SDS011;10984;45.712;4.800;2023-05-19T10:59:00;3.47;;;1.55;;
21645;SDS011;10984;45.712;4.800;2023-05-19T11:04:11;8.25;;;2.20;;
21645;SDS011;10984;45.712;4.800;2023-05-19T11:06:38;5.10;;;1.92;;
21645;SDS011;10984;45.712;4.800;2023-05-19T11:11:53;2.90;;;1.75;;
21645;SDS011;10984;45.712;4.800;2023-05-19T11:14:19;3.65;;;2.10;;
21645;SDS011;10984;45.712;4.800;2023-05-19T11:16:49;4.18;;;1.83;;
21645;SDS011;10984;45.712;4.800;2023-05-19T11:25:03;4.60;;;1.77;;
21645;SDS011;10984;45.712;4.800;2023-05-19T11:30:15;4.75;;;1.52;;
21645;SDS011;10984;45.712;4.800;2023-05-19T11:32:44;4.13;;;1.60;;
21645;SDS011;10984;45.712;4.800;2023-05-19T11:35:12;3.13;;;1.70;;
21645;SDS011;10984;45.712;4.800;2023-05-19T11:37:38;3.97;;;1.95;;
21645;SDS011;10984;45.712;4.800;2023-05-19T11:40:22;2.85;;;1.30;;
21645;SDS011;10984;45.712;4.800;2023-05-19T11:42:49;4.13;;;1.58;;
21645;SDS011;10984;45.712;4.800;2023-05-19T11:45:15;5.78;;;1.50;;
21645;SDS011;10984;45.712;4.800;2023-05-19T11:47:40;4.25;;;1.90;;
21645;SDS011;10984;45.712;4.800;2023-05-19T11:50:06;4.38;;;1.50;;
21645;SDS011;10984;45.712;4.800;2023-05-19T11:52:36;4.15;;;1.83;;
21645;SDS011;10984;45.712;4.800;2023-05-19T11:55:08;2.58;;;1.40;;
21645;SDS011;10984;45.712;4.800;2023-05-19T11:57:38;5.10;;;2.00;;
21645;SDS011;10984;45.712;4.800;2023-05-19T12:00:05;3.38;;;1.65;;
21645;SDS011;10984;45.712;4.800;2023-05-19T12:02:32;4.60;;;1.85;;
21645;SDS011;10984;45.712;4.800;2023-05-19T12:04:57;3.15;;;1.50;;
21645;SDS011;10984;45.712;4.800;2023-05-19T12:07:23;4.40;;;1.83;;
21645;SDS011;10984;45.712;4.800;2023-05-19T12:09:50;2.70;;;1.50;;
21645;SDS011;10984;45.712;4.800;2023-05-19T12:12:17;2.67;;;1.50;;
21645;SDS011;10984;45.712;4.800;2023-05-19T12:17:30;3.72;;;1.80;;
21645;SDS011;10984;45.712;4.800;2023-05-19T12:19:56;4.82;;;1.52;;
21645;SDS011;10984;45.712;4.800;2023-05-19T12:22:23;3.35;;;1.58;;
21645;SDS011;10984;45.712;4.800;2023-05-19T12:24:49;3.33;;;1.98;;
21645;SDS011;10984;45.712;4.800;2023-05-19T12:30:01;2.92;;;1.30;;
21645;SDS011;10984;45.712;4.800;2023-05-19T12:32:28;3.38;;;1.73;;
21645;SDS011;10984;45.712;4.800;2023-05-19T12:40:28;2.97;;;1.52;;
21645;SDS011;10984;45.712;4.800;2023-05-19T12:42:54;6.38;;;2.03;;
21645;SDS011;10984;45.712;4.800;2023-05-19T12:45:22;8.95;;;2.20;;
21645;SDS011;10984;45.712;4.800;2023-05-19T12:47:50;4.65;;;1.92;;
21645;SDS011;10984;45.712;4.800;2023-05-19T12:50:16;4.03;;;1.50;;
21645;SDS011;10984;45.712;4.800;2023-05-19T12:52:46;4.22;;;1.60;;
21645;SDS011;10984;45.712;4.800;2023-05-19T12:55:13;4.35;;;1.48;;
21645;SDS011;10984;45.712;4.800;2023-05-19T12:57:41;3.00;;;1.50;;
21645;SDS011;10984;45.712;4.800;2023-05-19T13:05:40;4.07;;;2.05;;
21645;SDS011;10984;45.712;4.800;2023-05-19T13:08:11;4.88;;;1.90;;
21645;SDS011;10984;45.712;4.800;2023-05-19T13:10:39;3.75;;;1.60;;
21645;SDS011;10984;45.712;4.800;2023-05-19T13:13:05;4.25;;;2.20;;
21645;SDS011;10984;45.712;4.800;2023-05-19T13:15:32;7.80;;;2.40;;
21645;SDS011;10984;45.712;4.800;2023-05-19T13:18:02;4.50;;;1.65;;
21645;SDS011;10984;45.712;4.800;2023-05-19T13:20:31;4.80;;;2.53;;
21645;SDS011;10984;45.712;4.800;2023-05-19T13:22:57;4.88;;;2.35;;
21645;SDS011;10984;45.712;4.800;2023-05-19T13:25:23;5.00;;;1.80;;
21645;SDS011;10984;45.712;4.800;2023-05-19T13:27:50;3.20;;;1.60;;
21645;SDS011;10984;45.712;4.800;2023-05-19T13:30:17;3.47;;;1.45;;
21645;SDS011;10984;45.712;4.800;2023-05-19T13:32:43;4.00;;;1.30;;
21645;SDS011;10984;45.712;4.800;2023-05-19T13:35:11;4.13;;;1.35;;
21645;SDS011;10984;45.712;4.800;2023-05-19T13:37:38;9.65;;;3.42;;
21645;SDS011;10984;45.712;4.800;2023-05-19T13:40:04;4.47;;;1.85;;
21645;SDS011;10984;45.712;4.800;2023-05-19T13:45:14;5.32;;;2.22;;
21645;SDS011;10984;45.712;4.800;2023-05-19T13:47:40;2.97;;;1.40;;
21645;SDS011;10984;45.712;4.800;2023-05-19T13:50:05;5.47;;;1.98;;
21645;SDS011;10984;45.712;4.800;2023-05-19T13:52:31;3.70;;;1.70;;
21645;SDS011;10984;45.712;4.800;2023-05-19T13:54:57;3.80;;;1.77;;
21645;SDS011;10984;45.712;4.800;2023-05-19T13:57:23;2.70;;;1.20;;
21645;SDS011;10984;45.712;4.800;2023-05-19T13:59:50;3.55;;;1.40;;
21645;SDS011;10984;45.712;4.800;2023-05-19T14:02:16;2.75;;;1.45;;
21645;SDS011;10984;45.712;4.800;2023-05-19T14:04:41;3.53;;;1.77;;
21645;SDS011;10984;45.712;4.800;2023-05-19T14:07:07;3.08;;;1.30;;
21645;SDS011;10984;45.712;4.800;2023-05-19T14:09:34;5.40;;;1.35;;
21645;SDS011;10984;45.712;4.800;2023-05-19T14:12:00;3.90;;;1.92;;
21645;SDS011;10984;45.712;4.800;2023-05-19T14:14:25;5.10;;;1.85;;
21645;SDS011;10984;45.712;4.800;2023-05-19T14:16:51;2.95;;;1.20;;
21645;SDS011;10984;45.712;4.800;2023-05-19T14:19:17;3.33;;;1.30;;
21645;SDS011;10984;45.712;4.800;2023-05-19T14:21:42;4.00;;;1.48;;
21645;SDS011;10984;45.712;4.800;2023-05-19T14:24:08;3.05;;;1.13;;
21645;SDS011;10984;45.712;4.800;2023-05-19T14:26:34;4.60;;;1.73;;
21645;SDS011;10984;45.712;4.800;2023-05-19T14:28:59;4.05;;;1.60;;
21645;SDS011;10984;45.712;4.800;2023-05-19T14:31:25;3.70;;;1.42;;
21645;SDS011;10984;45.712;4.800;2023-05-19T14:33:51;4.15;;;1.58;;
21645;SDS011;10984;45.712;4.800;2023-05-19T14:36:16;2.85;;;1.10;;
21645;SDS011;10984;45.712;4.800;2023-05-19T14:38:42;5.72;;;1.50;;
21645;SDS011;10984;45.712;4.800;2023-05-19T14:41:08;3.47;;;1.90;;
21645;SDS011;10984;45.712;4.800;2023-05-19T14:43:33;3.25;;;1.40;;
21645;SDS011;10984;45.712;4.800;2023-05-19T14:45:59;11.38;;;1.42;;
21645;SDS011;10984;45.712;4.800;2023-05-19T14:48:24;4.18;;;1.25;;
21645;SDS011;10984;45.712;4.800;2023-05-19T14:50:51;2.80;;;1.23;;
21645;SDS011;10984;45.712;4.800;2023-05-19T14:53:17;2.78;;;1.25;;
21645;SDS011;10984;45.712;4.800;2023-05-19T14:55:43;4.18;;;1.73;;
21645;SDS011;10984;45.712;4.800;2023-05-19T14:58:08;2.28;;;1.20;;
21645;SDS011;10984;45.712;4.800;2023-05-19T15:00:34;3.38;;;1.50;;
21645;SDS011;10984;45.712;4.800;2023-05-19T15:03:00;8.02;;;2.15;;
21645;SDS011;10984;45.712;4.800;2023-05-19T15:05:26;2.55;;;1.20;;
21645;SDS011;10984;45.712;4.800;2023-05-19T15:07:51;6.55;;;1.67;;
21645;SDS011;10984;45.712;4.800;2023-05-19T15:10:17;3.95;;;1.60;;
21645;SDS011;10984;45.712;4.800;2023-05-19T15:13:01;2.92;;;1.38;;
21645;SDS011;10984;45.712;4.800;2023-05-19T15:15:28;3.22;;;1.40;;
21645;SDS011;10984;45.712;4.800;2023-05-19T15:17:53;6.22;;;1.50;;
21645;SDS011;10984;45.712;4.800;2023-05-19T15:20:19;4.20;;;1.42;;
21645;SDS011;10984;45.712;4.800;2023-05-19T15:22:45;4.72;;;1.55;;
21645;SDS011;10984;45.712;4.800;2023-05-19T15:25:10;4.25;;;1.40;;
21645;SDS011;10984;45.712;4.800;2023-05-19T15:27:36;4.00;;;1.60;;
21645;SDS011;10984;45.712;4.800;2023-05-19T15:30:02;5.13;;;1.52;;
21645;SDS011;10984;45.712;4.800;2023-05-19T15:32:29;3.15;;;1.50;;
21645;SDS011;10984;45.712;4.800;2023-05-19T15:34:55;2.72;;;1.52;;
21645;SDS011;10984;45.712;4.800;2023-05-19T15:37:20;4.18;;;1.60;;
21645;SDS011;10984;45.712;4.800;2023-05-19T15:39:46;4.85;;;1.70;;
21645;SDS011;10984;45.712;4.800;2023-05-19T15:42:12;5.28;;;1.30;;
21645;SDS011;10984;45.712;4.800;2023-05-19T15:44:37;4.13;;;1.60;;
21645;SDS011;10984;45.712;4.800;2023-05-19T15:47:03;3.92;;;1.52;;
21645;SDS011;10984;45.712;4.800;2023-05-19T15:49:28;3.42;;;1.27;;
21645;SDS011;10984;45.712;4.800;2023-05-19T15:51:54;2.63;;;1.42;;
21645;SDS011;10984;45.712;4.800;2023-05-19T15:54:20;3.92;;;1.50;;
21645;SDS011;10984;45.712;4.800;2023-05-19T15:56:45;4.03;;;1.60;;
21645;SDS011;10984;45.712;4.800;2023-05-19T15:59:11;3.80;;;1.65;;
21645;SDS011;10984;45.712;4.800;2023-05-19T16:01:37;5.90;;;2.20;;
21645;SDS011;10984;45.712;4.800;2023-05-19T16:04:02;4.20;;;1.55;;
21645;SDS011;10984;45.712;4.800;2023-05-19T16:06:28;4.40;;;1.30;;
21645;SDS011;10984;45.712;4.800;2023-05-19T16:08:54;3.08;;;1.58;;
21645;SDS011;10984;45.712;4.800;2023-05-19T16:11:21;3.15;;;1.23;;
21645;SDS011;10984;45.712;4.800;2023-05-19T16:13:47;3.75;;;1.58;;
21645;SDS011;10984;45.712;4.800;2023-05-19T16:16:13;2.67;;;1.30;;
21645;SDS011;10984;45.712;4.800;2023-05-19T16:18:38;3.08;;;1.40;;
21645;SDS011;10984;45.712;4.800;2023-05-19T16:21:04;3.33;;;1.50;;
21645;SDS011;10984;45.712;4.800;2023-05-19T16:23:30;5.53;;;1.90;;